createdAt,value
2022-11-09T00:01:29.979Z,7.85
2022-11-09T00:03:59.840Z,7.88
2022-11-09T00:06:29.613Z,7.89
2022-11-09T00:09:01.310Z,7.92
2022-11-09T00:11:32.134Z,7.95
2022-11-09T00:13:59.873Z,7.98
2022-11-09T00:16:27.870Z,8.01
2022-11-09T00:18:56.187Z,8.07
2022-11-09T00:21:25.148Z,8.12
2022-11-09T00:23:53.933Z,8.17
2022-11-09T00:26:21.945Z,8.21
2022-11-09T00:28:50.878Z,8.23
2022-11-09T00:31:21.873Z,8.24
2022-11-09T00:33:54.615Z,8.26
2022-11-09T00:36:24.107Z,8.27
2022-11-09T00:38:54.439Z,8.28
2022-11-09T00:41:23.042Z,8.30
2022-11-09T00:43:51.390Z,8.33
2022-11-09T00:46:20.318Z,8.34
2022-11-09T00:48:48.334Z,8.36
2022-11-09T00:51:16.350Z,8.37
2022-11-09T00:53:44.161Z,8.40
2022-11-09T00:56:13.032Z,8.41
2022-11-09T00:58:41.196Z,8.42
2022-11-09T01:01:16.859Z,8.43
2022-11-09T01:03:45.689Z,8.43
2022-11-09T01:06:22.005Z,8.43
2022-11-09T01:08:50.871Z,8.44
2022-11-09T01:11:20.641Z,8.44
2022-11-09T01:13:49.465Z,8.44
2022-11-09T01:16:20.929Z,8.43
2022-11-09T01:18:48.990Z,8.43
2022-11-09T01:21:16.730Z,8.45
2022-11-09T01:23:44.577Z,8.47
2022-11-09T01:26:14.410Z,8.47
2022-11-09T01:28:42.785Z,8.46
2022-11-09T01:31:13.830Z,8.44
2022-11-09T01:33:41.878Z,8.42
2022-11-09T01:36:13.746Z,8.40
2022-11-09T01:38:42.215Z,8.39
2022-11-09T01:41:14.437Z,8.38
2022-11-09T01:43:42.618Z,8.37
2022-11-09T01:46:28.954Z,8.34
2022-11-09T01:49:01.634Z,8.33
2022-11-09T01:51:38.467Z,8.32
2022-11-09T01:54:15.497Z,8.30
2022-11-09T01:56:45.962Z,8.29
2022-11-09T01:59:17.958Z,8.27
2022-11-09T02:01:46.857Z,8.26
2022-11-09T02:04:21.718Z,8.26
2022-11-09T02:06:50.357Z,8.25
2022-11-09T02:09:26.853Z,8.23
2022-11-09T02:11:54.687Z,8.22
2022-11-09T02:14:25.658Z,8.20
2022-11-09T02:16:53.689Z,8.19
2022-11-09T02:19:21.485Z,8.17
2022-11-09T02:21:49.682Z,8.16
2022-11-09T02:24:18.702Z,8.14
2022-11-09T02:26:52.064Z,8.13
2022-11-09T02:29:27.531Z,8.11
2022-11-09T02:32:03.633Z,8.10
2022-11-09T02:34:31.518Z,8.10
2022-11-09T02:36:59.255Z,8.09
2022-11-09T02:39:28.905Z,8.07
2022-11-09T02:42:03.392Z,8.05
2022-11-09T02:44:36.493Z,8.05
2022-11-09T02:47:04.224Z,8.05
2022-11-09T02:49:32.022Z,8.04
2022-11-09T02:52:00.010Z,8.04
2022-11-09T02:54:27.755Z,8.04
2022-11-09T02:56:55.989Z,8.03
2022-11-09T02:59:23.732Z,8.05
2022-11-09T03:01:51.551Z,8.07
2022-11-09T03:04:19.337Z,8.06
2022-11-09T03:06:47.465Z,8.07
2022-11-09T03:09:15.217Z,8.07
2022-11-09T03:11:43.528Z,8.07
2022-11-09T03:14:11.684Z,8.07
2022-11-09T03:16:40.187Z,8.07
2022-11-09T03:19:08.471Z,8.07
2022-11-09T03:21:36.112Z,8.06
2022-11-09T03:24:04.007Z,8.07
2022-11-09T03:26:31.750Z,8.08
2022-11-09T03:28:59.518Z,8.08
2022-11-09T03:31:27.198Z,8.08
2022-11-09T03:33:54.938Z,8.08
2022-11-09T03:36:22.691Z,8.10
2022-11-09T03:38:50.393Z,8.10
2022-11-09T03:41:18.530Z,8.11
2022-11-09T03:43:46.293Z,8.11
2022-11-09T03:46:14.051Z,8.10
2022-11-09T03:48:42.128Z,8.11
2022-11-09T03:51:09.885Z,8.10
2022-11-09T03:53:37.646Z,8.10
2022-11-09T03:56:06.042Z,8.08
2022-11-09T03:58:33.781Z,8.06
2022-11-09T04:01:01.569Z,8.04
2022-11-09T04:03:29.523Z,8.02
2022-11-09T04:06:00.255Z,8.00
2022-11-09T04:08:29.152Z,7.98
2022-11-09T04:10:56.883Z,7.95
2022-11-09T04:13:24.666Z,7.93
2022-11-09T04:15:52.430Z,7.91
2022-11-09T04:18:20.310Z,7.91
2022-11-09T04:20:48.034Z,7.91
2022-11-09T04:23:15.838Z,7.91
2022-11-09T04:25:43.615Z,7.91
2022-11-09T04:28:12.898Z,7.90
2022-11-09T04:30:40.755Z,7.90
2022-11-09T04:33:09.461Z,7.89
2022-11-09T04:35:37.298Z,7.88
2022-11-09T04:38:07.072Z,7.88
2022-11-09T04:40:35.997Z,7.86
2022-11-09T04:43:06.870Z,7.84
2022-11-09T04:45:35.833Z,7.83
2022-11-09T04:48:06.545Z,7.82
2022-11-09T04:50:35.045Z,7.80
2022-11-09T04:53:08.200Z,7.78
2022-11-09T04:55:36.282Z,7.76
2022-11-09T04:58:04.667Z,7.74
2022-11-09T05:00:32.746Z,7.72
2022-11-09T05:03:05.547Z,7.71
2022-11-09T05:05:35.391Z,7.71
2022-11-09T05:08:04.647Z,7.72
2022-11-09T05:10:33.123Z,7.70
2022-11-09T05:13:03.076Z,7.68
2022-11-09T05:15:31.295Z,7.67
2022-11-09T05:17:59.126Z,7.64
2022-11-09T05:20:26.832Z,7.62
2022-11-09T05:23:13.702Z,7.61
2022-11-09T05:25:41.367Z,7.59
2022-11-09T05:28:09.791Z,7.57
2022-11-09T05:30:37.946Z,7.56
2022-11-09T05:33:05.926Z,7.56
2022-11-09T05:35:34.306Z,7.55
2022-11-09T05:38:02.179Z,7.54
2022-11-09T05:40:29.982Z,7.53
2022-11-09T05:42:57.799Z,7.52
2022-11-09T05:45:43.101Z,7.52
2022-11-09T05:48:12.896Z,7.50
2022-11-09T05:50:42.656Z,7.48
2022-11-09T05:53:12.124Z,7.47
2022-11-09T05:55:40.540Z,7.45
2022-11-09T05:58:08.663Z,7.45
2022-11-09T06:00:36.784Z,7.44
2022-11-09T06:03:07.763Z,7.45
2022-11-09T06:05:37.683Z,7.45
2022-11-09T06:08:10.968Z,7.47
2022-11-09T06:10:39.316Z,7.48
2022-11-09T06:13:07.371Z,7.49
2022-11-09T06:15:35.547Z,7.51
2022-11-09T06:18:03.438Z,7.53
2022-11-09T06:20:33.399Z,7.56
2022-11-09T06:23:03.908Z,7.57
2022-11-09T06:25:33.415Z,7.60
2022-11-09T06:28:01.596Z,7.62
2022-11-09T06:30:30.065Z,7.68
2022-11-09T06:33:00.167Z,7.72
2022-11-09T06:35:28.791Z,7.75
2022-11-09T06:38:00.437Z,7.78
2022-11-09T06:40:28.735Z,7.80
2022-11-09T06:42:58.522Z,7.83
2022-11-09T06:45:28.624Z,7.86
2022-11-09T06:48:01.774Z,7.90
2022-11-09T06:50:34.188Z,7.94
2022-11-09T06:53:05.692Z,7.99
2022-11-09T06:55:35.567Z,8.03
2022-11-09T06:58:12.769Z,8.08
2022-11-09T07:00:40.598Z,8.14
2022-11-09T07:03:08.412Z,8.20
2022-11-09T07:05:39.762Z,8.26
2022-11-09T07:08:07.560Z,8.33
2022-11-09T07:10:35.432Z,8.39
2022-11-09T07:13:04.423Z,8.46
2022-11-09T07:15:33.921Z,8.51
2022-11-09T07:18:03.731Z,8.57
2022-11-09T07:20:32.339Z,8.65
2022-11-09T07:23:00.150Z,8.71
2022-11-09T07:25:28.044Z,8.76
2022-11-09T07:28:02.067Z,8.83
2022-11-09T07:30:29.915Z,8.88
2022-11-09T07:33:09.264Z,8.94
2022-11-09T07:35:38.632Z,9.00
2022-11-09T07:38:06.665Z,9.06
2022-11-09T07:40:35.016Z,9.13
2022-11-09T07:43:05.563Z,9.17
2022-11-09T07:45:35.771Z,9.23
2022-11-09T07:48:09.083Z,9.26
2022-11-09T07:50:38.751Z,9.30
2022-11-09T07:53:07.348Z,9.35
2022-11-09T07:55:35.799Z,9.39
2022-11-09T07:58:10.559Z,9.44
2022-11-09T08:00:41.020Z,9.49
2022-11-09T08:03:09.459Z,9.55
2022-11-09T08:05:38.143Z,9.61
2022-11-09T08:08:08.667Z,9.67
2022-11-09T08:10:37.688Z,9.75
2022-11-09T08:13:08.521Z,9.82
2022-11-09T08:15:38.306Z,9.89
2022-11-09T08:18:10.566Z,9.96
2022-11-09T08:20:38.448Z,10.07
2022-11-09T08:23:06.604Z,10.16
2022-11-09T08:25:35.625Z,10.25
2022-11-09T08:28:03.714Z,10.35
2022-11-09T08:30:32.235Z,10.43
2022-11-09T08:33:02.161Z,10.53
2022-11-09T08:35:30.909Z,10.62
2022-11-09T08:38:03.138Z,10.68
2022-11-09T08:40:33.130Z,10.74
2022-11-09T08:43:03.454Z,10.79
2022-11-09T08:45:37.379Z,10.86
2022-11-09T08:48:06.292Z,10.89
2022-11-09T08:50:36.471Z,10.91
2022-11-09T08:53:04.977Z,10.92
2022-11-09T08:55:33.116Z,10.96
2022-11-09T08:58:02.791Z,11.01
2022-11-09T09:00:30.877Z,11.06
2022-11-09T09:02:59.123Z,11.08
2022-11-09T09:05:26.845Z,11.10
2022-11-09T09:07:54.645Z,11.16
2022-11-09T09:10:22.373Z,11.23
2022-11-09T09:12:50.141Z,11.31
2022-11-09T09:15:18.063Z,11.38
2022-11-09T09:17:46.090Z,11.43
2022-11-09T09:20:13.826Z,11.50
2022-11-09T09:22:41.509Z,11.59
2022-11-09T09:25:09.593Z,11.63
2022-11-09T09:27:37.349Z,11.69
2022-11-09T09:30:06.025Z,11.73
2022-11-09T09:32:33.730Z,11.76
2022-11-09T09:35:01.537Z,11.77
2022-11-09T09:37:29.303Z,11.79
2022-11-09T09:39:57.059Z,11.81
2022-11-09T09:42:35.729Z,11.83
2022-11-09T09:45:26.270Z,11.90
2022-11-09T09:48:12.164Z,11.96
2022-11-09T09:50:57.251Z,12.03
2022-11-09T09:53:45.884Z,12.12
2022-11-09T09:56:31.287Z,12.17
2022-11-09T09:59:07.055Z,12.17
2022-11-09T10:01:45.880Z,12.18
2022-11-09T10:04:30.135Z,12.18
2022-11-09T10:07:05.713Z,12.19
2022-11-09T10:09:42.232Z,12.20
2022-11-09T10:12:33.009Z,12.21
2022-11-09T10:15:06.398Z,12.24
2022-11-09T10:17:40.518Z,12.27
2022-11-09T10:20:26.656Z,12.24
2022-11-09T10:23:12.981Z,12.27
2022-11-09T10:26:03.057Z,12.33
2022-11-09T10:28:47.946Z,12.37
2022-11-09T10:31:23.710Z,12.44
2022-11-09T10:33:58.685Z,12.50
2022-11-09T10:36:29.469Z,12.58
2022-11-09T10:39:01.571Z,12.62
2022-11-09T10:41:39.781Z,12.70
2022-11-09T10:44:17.482Z,12.75
2022-11-09T10:47:22.737Z,12.76
2022-11-09T10:50:23.065Z,12.74
2022-11-09T10:52:51.004Z,12.78
2022-11-09T10:55:29.079Z,12.80
2022-11-09T10:58:01.162Z,12.79
2022-11-09T11:00:29.106Z,12.81
2022-11-09T11:02:57.386Z,12.86
2022-11-09T11:05:27.940Z,12.90
2022-11-09T11:07:56.415Z,12.94
2022-11-09T11:10:24.679Z,12.97
2022-11-09T11:12:57.669Z,13.01
2022-11-09T11:15:33.129Z,13.06
2022-11-09T11:18:06.255Z,13.08
2022-11-09T11:20:35.966Z,13.09
2022-11-09T11:23:14.460Z,13.11
2022-11-09T11:25:54.421Z,13.14
2022-11-09T11:28:30.629Z,13.15
2022-11-09T11:30:58.452Z,13.12
2022-11-09T11:33:26.724Z,13.13
2022-11-09T11:36:28.549Z,13.14
2022-11-09T11:39:20.703Z,13.11
2022-11-09T11:42:20.694Z,13.19
2022-11-09T11:45:03.143Z,13.28
2022-11-09T11:48:01.421Z,13.37
2022-11-09T11:50:39.465Z,13.46
2022-11-09T11:53:22.921Z,13.50
2022-11-09T11:55:58.149Z,13.52
2022-11-09T11:58:48.746Z,13.54
2022-11-09T12:01:25.815Z,13.57
2022-11-09T12:03:56.201Z,13.62
2022-11-09T12:06:32.946Z,13.69
2022-11-09T12:09:09.844Z,13.73
2022-11-09T12:12:01.843Z,13.78
2022-11-09T12:14:57.532Z,13.82
2022-11-09T12:17:38.125Z,13.82
2022-11-09T12:20:25.327Z,13.80
2022-11-09T12:23:25.347Z,13.81
2022-11-09T12:25:53.028Z,13.84
2022-11-09T12:28:34.903Z,13.85
2022-11-09T12:31:37.253Z,13.83
2022-11-09T12:34:15.889Z,13.79
2022-11-09T12:37:05.004Z,13.74
2022-11-09T12:40:13.569Z,13.69
2022-11-09T12:42:47.394Z,13.67
2022-11-09T12:45:17.648Z,13.63
2022-11-09T12:47:45.968Z,13.60
2022-11-09T12:50:17.772Z,13.56
2022-11-09T12:52:48.436Z,13.53
2022-11-09T12:55:20.118Z,13.46
2022-11-09T12:57:48.593Z,13.40
2022-11-09T13:00:39.877Z,13.36
2022-11-09T13:03:19.552Z,13.34
2022-11-09T13:05:49.696Z,13.29
2022-11-09T13:08:29.375Z,13.24
2022-11-09T13:11:21.917Z,13.19
2022-11-09T13:13:49.668Z,13.15
2022-11-09T13:16:20.297Z,13.11
2022-11-09T13:18:51.613Z,13.08
2022-11-09T13:21:22.537Z,13.03
2022-11-09T13:24:01.456Z,12.97
2022-11-09T13:26:30.865Z,12.93
2022-11-09T13:29:07.470Z,12.90
2022-11-09T13:32:12.674Z,12.88
2022-11-09T13:34:46.450Z,12.83
2022-11-09T13:37:42.404Z,12.78
2022-11-09T13:40:32.106Z,12.73
2022-11-09T13:43:03.763Z,12.69
2022-11-09T13:45:46.970Z,12.65
2022-11-09T13:48:32.800Z,12.60
2022-11-09T13:51:09.297Z,12.57
2022-11-09T13:53:37.295Z,12.55
2022-11-09T13:56:30.346Z,12.52
2022-11-09T13:59:05.793Z,12.50
2022-11-09T14:01:48.253Z,12.50
2022-11-09T14:04:39.905Z,12.46
2022-11-09T14:07:25.391Z,12.43
2022-11-09T14:10:31.051Z,12.39
2022-11-09T14:13:36.600Z,12.34
2022-11-09T14:16:27.600Z,12.29
2022-11-09T14:19:17.592Z,12.24
2022-11-09T14:21:48.187Z,12.18
2022-11-09T14:24:37.698Z,12.15
2022-11-09T14:27:11.198Z,12.12
2022-11-09T14:29:56.817Z,12.08
2022-11-09T14:32:35.078Z,12.05
2022-11-09T14:35:19.940Z,12.01
2022-11-09T14:37:52.669Z,11.97
2022-11-09T14:40:28.167Z,11.94
2022-11-09T14:43:00.334Z,11.90
2022-11-09T14:45:29.424Z,11.87
2022-11-09T14:47:59.699Z,11.82
2022-11-09T14:50:32.020Z,11.78
2022-11-09T14:53:01.315Z,11.75
2022-11-09T14:55:30.599Z,11.73
2022-11-09T14:57:58.658Z,11.70
2022-11-09T15:00:30.610Z,11.66
2022-11-09T15:02:59.633Z,11.63
2022-11-09T15:05:40.082Z,11.59
2022-11-09T15:08:24.419Z,11.55
2022-11-09T15:10:53.632Z,11.51
2022-11-09T15:13:37.576Z,11.47
2022-11-09T15:16:07.139Z,11.42
2022-11-09T15:18:41.725Z,11.37
2022-11-09T15:21:17.275Z,11.32
2022-11-09T15:23:48.049Z,11.27
2022-11-09T15:26:27.128Z,11.22
2022-11-09T15:28:55.336Z,11.17
2022-11-09T15:31:25.879Z,11.12
2022-11-09T15:33:56.880Z,11.06
2022-11-09T15:36:29.543Z,11.02
2022-11-09T15:39:16.057Z,10.96
2022-11-09T15:41:43.988Z,10.91
2022-11-09T15:44:14.442Z,10.87
2022-11-09T15:46:48.848Z,10.83
2022-11-09T15:49:19.537Z,10.80
2022-11-09T15:51:47.445Z,10.78
2022-11-09T15:54:15.700Z,10.76
2022-11-09T15:56:43.828Z,10.74
2022-11-09T15:59:26.255Z,10.72
2022-11-09T16:01:53.998Z,10.70
2022-11-09T16:04:21.842Z,10.69
2022-11-09T16:06:49.762Z,10.67
2022-11-09T16:09:17.777Z,10.64
2022-11-09T16:11:49.243Z,10.61
2022-11-09T16:14:17.930Z,10.58
2022-11-09T16:16:45.682Z,10.54
2022-11-09T16:19:14.573Z,10.51
2022-11-09T16:21:43.255Z,10.47
2022-11-09T16:24:11.008Z,10.44
2022-11-09T16:26:38.757Z,10.41
2022-11-09T16:29:06.481Z,10.38
2022-11-09T16:31:50.952Z,10.35
2022-11-09T16:34:19.579Z,10.32
2022-11-09T16:36:52.304Z,10.31
2022-11-09T16:39:26.463Z,10.28
2022-11-09T16:41:54.432Z,10.26
2022-11-09T16:44:24.156Z,10.23
2022-11-09T16:46:52.332Z,10.20
2022-11-09T16:49:20.055Z,10.16
2022-11-09T16:51:47.865Z,10.12
2022-11-09T16:54:15.607Z,10.09
2022-11-09T16:56:43.510Z,10.06
2022-11-09T16:59:11.354Z,10.02
2022-11-09T17:01:39.148Z,9.99
2022-11-09T17:04:07.282Z,9.95
2022-11-09T17:06:35.595Z,9.92
2022-11-09T17:09:03.399Z,9.89
2022-11-09T17:11:31.177Z,9.86
2022-11-09T17:14:00.319Z,9.83
2022-11-09T17:16:28.231Z,9.81
2022-11-09T17:18:57.281Z,9.78
2022-11-09T17:21:27.172Z,9.76
2022-11-09T17:23:56.644Z,9.73
2022-11-09T17:26:25.699Z,9.69
2022-11-09T17:28:53.694Z,9.67
2022-11-09T17:31:23.606Z,9.65
2022-11-09T17:33:51.383Z,9.62
2022-11-09T17:36:29.881Z,9.60
2022-11-09T17:39:07.202Z,9.57
2022-11-09T17:41:38.710Z,9.55
2022-11-09T17:44:09.288Z,9.53
2022-11-09T17:46:37.117Z,9.50
2022-11-09T17:49:09.799Z,9.48
2022-11-09T17:51:38.307Z,9.46
2022-11-09T17:54:06.386Z,9.43
2022-11-09T17:56:34.209Z,9.41
2022-11-09T17:59:04.623Z,9.40
2022-11-09T18:01:37.966Z,9.39
2022-11-09T18:04:08.696Z,9.39
2022-11-09T18:06:36.551Z,9.38
2022-11-09T18:09:40.234Z,9.38
2022-11-09T18:11:53.051Z,9.39
2022-11-09T18:14:20.847Z,9.39
2022-11-09T18:16:48.801Z,9.38
2022-11-09T18:19:16.557Z,9.37
2022-11-09T18:21:47.510Z,9.36
2022-11-09T18:24:15.278Z,9.35
2022-11-09T18:26:42.943Z,9.35
2022-11-09T18:29:10.671Z,9.35
2022-11-09T18:31:38.450Z,9.34
2022-11-09T18:34:06.264Z,9.35
2022-11-09T18:36:34.284Z,9.34
2022-11-09T18:39:03.381Z,9.34
2022-11-09T18:41:31.448Z,9.34
2022-11-09T18:43:59.217Z,9.33
2022-11-09T18:46:30.893Z,9.33
2022-11-09T18:48:58.952Z,9.33
2022-11-09T18:51:26.647Z,9.32
2022-11-09T18:53:54.491Z,9.33
2022-11-09T18:56:24.550Z,9.33
2022-11-09T18:58:54.964Z,9.33
2022-11-09T19:01:24.836Z,9.33
2022-11-09T19:03:59.005Z,9.34
2022-11-09T19:06:28.244Z,9.34
2022-11-09T19:09:15.263Z,9.33
2022-11-09T19:11:43.037Z,9.32
2022-11-09T19:14:11.288Z,9.32
2022-11-09T19:16:39.056Z,9.31
2022-11-09T19:19:07.160Z,9.29
2022-11-09T19:21:43.572Z,9.28
2022-11-09T19:24:12.971Z,9.25
2022-11-09T19:26:40.816Z,9.22
2022-11-09T19:29:10.361Z,9.21
2022-11-09T19:31:41.553Z,9.20
2022-11-09T19:34:14.645Z,9.20
2022-11-09T19:36:43.286Z,9.18
2022-11-09T19:39:11.069Z,9.18
2022-11-09T19:41:38.861Z,9.17
2022-11-09T19:44:08.463Z,9.16
2022-11-09T19:46:36.485Z,9.15
2022-11-09T19:49:05.489Z,9.13
2022-11-09T19:51:34.825Z,9.11
2022-11-09T19:54:04.685Z,9.08
2022-11-09T19:56:33.510Z,9.06
2022-11-09T19:59:02.398Z,9.02
2022-11-09T20:01:31.049Z,8.98
2022-11-09T20:04:00.548Z,8.96
2022-11-09T20:06:29.658Z,8.93
2022-11-09T20:09:00.814Z,8.90
2022-11-09T20:11:48.000Z,8.87
2022-11-09T20:14:15.665Z,8.83
2022-11-09T20:16:44.539Z,8.79
2022-11-09T20:19:13.337Z,8.75
2022-11-09T20:21:41.870Z,8.70
2022-11-09T20:24:12.378Z,8.66
2022-11-09T20:26:41.160Z,8.60
2022-11-09T20:29:09.198Z,8.55
2022-11-09T20:31:37.491Z,8.49
2022-11-09T20:34:06.016Z,8.45
2022-11-09T20:36:35.245Z,8.40
2022-11-09T20:39:03.442Z,8.34
2022-11-09T20:41:32.833Z,8.30
2022-11-09T20:44:00.596Z,8.26
2022-11-09T20:46:34.364Z,8.22
2022-11-09T20:49:04.569Z,8.17
2022-11-09T20:51:32.658Z,8.15
2022-11-09T20:54:06.563Z,8.12
2022-11-09T20:56:36.097Z,8.09
2022-11-09T20:59:04.800Z,8.06
2022-11-09T21:01:33.027Z,8.03
2022-11-09T21:04:00.863Z,8.01
2022-11-09T21:06:29.132Z,7.99
2022-11-09T21:08:57.579Z,7.97
2022-11-09T21:11:28.863Z,7.95
2022-11-09T21:13:56.581Z,7.93
2022-11-09T21:16:24.564Z,7.91
2022-11-09T21:18:52.411Z,7.88
2022-11-09T21:21:23.145Z,7.85
2022-11-09T21:24:10.160Z,7.81
2022-11-09T21:26:56.464Z,7.78
2022-11-09T21:29:43.909Z,7.75
2022-11-09T21:32:12.315Z,7.71
2022-11-09T21:34:40.227Z,7.68
2022-11-09T21:37:08.437Z,7.66
2022-11-09T21:39:36.653Z,7.63
2022-11-09T21:42:04.810Z,7.62
2022-11-09T21:44:34.025Z,7.59
2022-11-09T21:47:02.422Z,7.58
2022-11-09T21:49:30.492Z,7.56
2022-11-09T21:51:58.461Z,7.56
2022-11-09T21:54:26.633Z,7.53
2022-11-09T21:56:55.062Z,7.53
2022-11-09T21:59:23.223Z,7.52
2022-11-09T22:01:52.190Z,7.50
2022-11-09T22:04:20.157Z,7.49
2022-11-09T22:06:47.868Z,7.47
2022-11-09T22:09:17.023Z,7.46
2022-11-09T22:12:04.022Z,7.43
2022-11-09T22:14:50.644Z,7.40
2022-11-09T22:17:18.926Z,7.40
2022-11-09T22:20:04.985Z,7.41
2022-11-09T22:22:33.961Z,7.43
2022-11-09T22:25:01.975Z,7.45
2022-11-09T22:27:31.693Z,7.46
2022-11-09T22:29:59.523Z,7.47
2022-11-09T22:32:27.282Z,7.49
2022-11-09T22:34:55.147Z,7.51
2022-11-09T22:37:22.959Z,7.52
2022-11-09T22:39:50.704Z,7.54
2022-11-09T22:42:18.469Z,7.56
2022-11-09T22:44:46.209Z,7.57
2022-11-09T22:47:13.885Z,7.58
2022-11-09T22:49:41.729Z,7.59
2022-11-09T22:52:10.412Z,7.60
2022-11-09T22:54:38.178Z,7.63
2022-11-09T22:57:05.956Z,7.64
2022-11-09T22:59:33.649Z,7.65
2022-11-09T23:02:01.414Z,7.66
2022-11-09T23:04:29.472Z,7.67
2022-11-09T23:06:57.247Z,7.67
2022-11-09T23:09:25.049Z,7.69
2022-11-09T23:11:52.818Z,7.70
2022-11-09T23:14:40.555Z,7.71
2022-11-09T23:17:28.358Z,7.74
2022-11-09T23:19:56.065Z,7.73
2022-11-09T23:22:23.918Z,7.74
2022-11-09T23:25:10.136Z,7.73
2022-11-09T23:27:38.697Z,7.73
2022-11-09T23:30:06.966Z,7.72
2022-11-09T23:32:34.732Z,7.71
2022-11-09T23:35:02.434Z,7.70
2022-11-09T23:37:30.261Z,7.70
2022-11-09T23:39:58.022Z,7.71
2022-11-09T23:42:25.785Z,7.73
2022-11-09T23:44:53.501Z,7.74
2022-11-09T23:47:21.190Z,7.75
2022-11-09T23:49:48.895Z,7.77
2022-11-09T23:52:16.683Z,7.80
2022-11-09T23:54:45.797Z,7.82
2022-11-09T23:57:13.863Z,7.83
2022-11-09T23:59:41.666Z,7.85
